Time;durP1;ratioP1;P1;durP2;ratioP2;P2;SDS_P1;SDS_P2;PMS_P1;PMS_P2;Temp;Humidity;BMP_temperature;BMP_pressure;BME280_temperature;BME280_humidity;BME280_pressure;Samples;Min_cycle;Max_cycle;Signal;HPM_P1;HPM_P2
2022/06/16 00:00:42;;;;;;;4.43;2.47;;;15.30;50.10;;;;;;5024714;28;20456;-53
2022/06/16 00:03:09;;;;;;;3.37;2.23;;;15.20;48.50;;;;;;5024253;28;20562;-53
2022/06/16 00:05:38;;;;;;;6.10;2.40;;;15.20;42.50;;;;;;5026297;28;20495;-52
2022/06/16 00:08:07;;;;;;;4.00;2.90;;;15.20;44.90;;;;;;5029120;28;20493;-53
2022/06/16 00:10:33;;;;;;;8.23;2.80;;;15.10;40.80;;;;;;5018012;28;20554;-52
2022/06/16 00:13:00;;;;;;;4.63;2.53;;;15.10;41.40;;;;;;5016437;28;20533;-53
2022/06/16 00:15:29;;;;;;;3.00;2.50;;;15.10;39.40;;;;;;5020144;28;20502;-53
2022/06/16 00:17:56;;;;;;;4.93;2.07;;;15.10;35.50;;;;;;5026824;28;20550;-54
2022/06/16 00:20:23;;;;;;;4.30;2.90;;;15.00;30.80;;;;;;5028602;28;20494;-53
2022/06/16 00:22:50;;;;;;;4.73;2.37;;;15.00;30.00;;;;;;5025107;28;20472;-53
2022/06/16 00:25:16;;;;;;;4.33;3.17;;;15.00;29.90;;;;;;5027869;28;22569;-52
2022/06/16 00:27:44;;;;;;;4.57;2.80;;;14.90;27.60;;;;;;5029538;28;20491;-53
2022/06/16 00:30:11;;;;;;;2.40;2.20;;;14.90;22.20;;;;;;5025048;28;20584;-53
2022/06/16 00:32:41;;;;;;;3.30;3.00;;;14.90;80.50;;;;;;5024517;28;20600;-52
2022/06/16 00:35:09;;;;;;;5.23;3.40;;;14.80;74.60;;;;;;5028310;28;20502;-53
2022/06/16 00:37:35;;;;;;;6.13;2.30;;;14.90;84.50;;;;;;5026845;28;20490;-53
2022/06/16 00:40:02;;;;;;;3.00;2.70;;;14.80;84.60;;;;;;5016200;28;20520;-53
2022/06/16 00:42:28;;;;;;;4.47;2.80;;;14.80;99.90;;;;;;5023864;28;20506;-53
2022/06/16 00:44:57;;;;;;;8.90;3.33;;;14.70;99.90;;;;;;5024153;28;20490;-56
2022/06/16 00:47:26;;;;;;;3.00;2.60;;;14.80;99.90;;;;;;5020936;28;20514;-53
2022/06/16 00:49:58;;;;;;;3.80;2.90;;;14.70;99.90;;;;;;5017461;28;20550;-52
2022/06/16 00:52:27;;;;;;;3.23;2.83;;;14.60;99.90;;;;;;5023527;28;20514;-51
2022/06/16 00:55:01;;;;;;;3.60;2.67;;;14.60;99.90;;;;;;5022903;28;20502;-53
2022/06/16 00:57:33;;;;;;;5.03;3.23;;;14.60;99.90;;;;;;5018800;28;20502;-52
2022/06/16 01:00:00;;;;;;;3.17;2.60;;;14.60;99.90;;;;;;5017400;28;20461;-53
2022/06/16 01:02:29;;;;;;;3.10;2.70;;;14.60;99.90;;;;;;5019086;28;20522;-53
2022/06/16 01:04:56;;;;;;;4.13;2.80;;;14.50;99.90;;;;;;5029506;28;20501;-52
2022/06/16 01:07:28;;;;;;;5.10;2.87;;;14.50;99.90;;;;;;5026969;28;20526;-52
2022/06/16 01:09:56;;;;;;;4.20;3.17;;;14.50;99.90;;;;;;5020612;28;20514;-52
2022/06/16 01:15:47;;;;;;;4.70;3.37;;;14.40;99.90;;;;;;5026014;28;20470;-52
2022/06/16 01:18:25;;;;;;;3.67;3.37;;;14.30;99.90;;;;;;5023669;28;20976;-51
2022/06/16 01:21:01;;;;;;;7.20;3.10;;;14.30;99.90;;;;;;5028529;28;20505;-52
2022/06/16 01:24:00;;;;;;;3.87;3.47;;;14.30;99.90;;;;;;5028596;28;20494;-53
2022/06/16 01:26:54;;;;;;;6.60;4.03;;;14.30;99.90;;;;;;5024067;28;20499;-52
2022/06/16 01:29:28;;;;;;;3.10;2.80;;;14.20;99.90;;;;;;5027449;28;20961;-52
2022/06/16 01:32:02;;;;;;;3.70;3.20;;;14.10;99.90;;;;;;5019006;28;20510;-53
2022/06/16 01:34:35;;;;;;;5.90;3.27;;;14.10;99.90;;;;;;5021930;28;20578;-52
2022/06/16 01:37:09;;;;;;;4.10;2.80;;;14.10;99.90;;;;;;5017196;28;20464;-53
2022/06/16 01:39:40;;;;;;;3.43;3.13;;;14.10;99.90;;;;;;5034070;28;20465;-52
2022/06/16 01:42:13;;;;;;;5.47;3.40;;;14.10;99.90;;;;;;5034367;28;20506;-53
2022/06/16 01:44:45;;;;;;;4.77;2.63;;;14.10;99.90;;;;;;5024977;28;20494;-52
2022/06/16 01:47:14;;;;;;;3.13;2.87;;;14.10;99.90;;;;;;5032680;28;20490;-52
2022/06/16 01:49:46;;;;;;;6.80;3.67;;;14.00;99.90;;;;;;5033386;28;20489;-53
2022/06/16 01:55:25;;;;;;;7.03;3.47;;;14.00;99.90;;;;;;4995430;28;20609;-53
2022/06/16 01:57:58;;;;;;;4.70;3.27;;;14.00;99.90;;;;;;5031645;28;20496;-52
2022/06/16 02:00:27;;;;;;;6.63;3.00;;;14.00;99.90;;;;;;5020955;28;20487;-53
2022/06/16 02:02:58;;;;;;;5.30;2.80;;;14.00;99.90;;;;;;5032757;28;20486;-52
2022/06/16 02:05:29;;;;;;;3.50;2.90;;;13.90;99.90;;;;;;5026755;28;20545;-52
2022/06/16 02:08:00;;;;;;;3.90;3.50;;;13.90;99.90;;;;;;5023747;28;20577;-52
2022/06/16 02:10:32;;;;;;;7.43;4.33;;;14.00;99.90;;;;;;5022941;28;20505;-53
2022/06/16 02:13:04;;;;;;;6.10;2.97;;;13.90;99.90;;;;;;5029342;28;21047;-53
2022/06/16 02:15:45;;;;;;;3.67;3.10;;;13.90;99.90;;;;;;5025063;28;20554;-52
2022/06/16 02:18:16;;;;;;;6.00;3.27;;;13.80;99.90;;;;;;5026679;28;21040;-52
2022/06/16 02:20:51;;;;;;;3.50;3.20;;;13.80;99.90;;;;;;5031962;28;20491;-52
2022/06/16 02:23:18;;;;;;;5.27;2.80;;;13.80;99.90;;;;;;5029915;28;20485;-53
2022/06/16 02:25:47;;;;;;;4.57;3.17;;;13.80;99.90;;;;;;5025089;28;20493;-52
2022/06/16 02:28:15;;;;;;;3.70;3.33;;;13.70;99.90;;;;;;5029382;28;20473;-52
2022/06/16 02:30:55;;;;;;;4.10;2.77;;;13.70;99.90;;;;;;5033385;28;20450;-52
2022/06/16 02:33:29;;;;;;;4.27;3.37;;;13.70;99.90;;;;;;5032603;28;20521;-52
2022/06/16 02:36:03;;;;;;;4.43;2.67;;;13.70;99.90;;;;;;5027808;28;20549;-52
2022/06/16 02:38:46;;;;;;;4.10;3.10;;;13.70;99.90;;;;;;5030546;28;20494;-53
2022/06/16 02:41:21;;;;;;;5.83;3.23;;;13.70;99.90;;;;;;5027625;28;20513;-52
2022/06/16 02:43:56;;;;;;;3.90;3.10;;;13.70;99.90;;;;;;5030386;28;20487;-53
2022/06/16 02:46:39;;;;;;;3.37;2.83;;;13.70;99.90;;;;;;5031086;28;20502;-53
2022/06/16 02:49:32;;;;;;;12.07;3.20;;;13.70;99.90;;;;;;5024320;28;20462;-53
2022/06/16 02:52:10;;;;;;;3.40;3.13;;;13.70;99.90;;;;;;5029110;28;20511;-53
2022/06/16 02:54:43;;;;;;;4.83;2.90;;;13.60;99.90;;;;;;5030408;28;20490;-53
2022/06/16 02:57:18;;;;;;;4.70;3.37;;;13.50;99.90;;;;;;5029741;28;20458;-53
2022/06/16 02:59:48;;;;;;;3.43;2.90;;;13.50;99.90;;;;;;5020861;28;20994;-52
2022/06/16 03:02:19;;;;;;;7.27;3.00;;;13.50;99.90;;;;;;5032043;28;21272;-53
2022/06/16 03:04:48;;;;;;;5.60;3.33;;;13.60;99.90;;;;;;5030994;28;20463;-52
2022/06/16 03:07:16;;;;;;;6.53;2.77;;;13.50;99.90;;;;;;5027446;28;20491;-54
2022/06/16 03:09:43;;;;;;;4.73;3.40;;;13.50;99.90;;;;;;5030757;28;20467;-52
2022/06/16 03:12:12;;;;;;;4.27;2.87;;;13.50;99.90;;;;;;5031670;28;20526;-53
2022/06/16 03:14:39;;;;;;;4.13;3.53;;;13.50;99.90;;;;;;5026566;28;20486;-53
2022/06/16 03:17:07;;;;;;;4.83;2.87;;;13.50;99.90;;;;;;5031040;28;20964;-52
2022/06/16 03:19:35;;;;;;;4.27;2.83;;;13.50;99.90;;;;;;5031972;28;20467;-53
2022/06/16 03:22:03;;;;;;;5.87;3.13;;;13.50;99.90;;;;;;5028591;28;20835;-52
2022/06/16 03:24:29;;;;;;;5.93;4.20;;;13.50;99.90;;;;;;5026431;28;20458;-52
2022/06/16 03:26:56;;;;;;;3.10;2.77;;;13.50;99.90;;;;;;5030773;28;20491;-52
2022/06/16 03:29:22;;;;;;;4.00;2.73;;;13.50;99.90;;;;;;5030431;28;20550;-52
2022/06/16 03:31:49;;;;;;;6.50;3.10;;;13.50;99.90;;;;;;5028774;28;20511;-52
2022/06/16 03:34:16;;;;;;;5.50;3.17;;;13.50;99.90;;;;;;5032102;28;20533;-52
2022/06/16 03:36:44;;;;;;;6.83;3.47;;;13.50;99.90;;;;;;5028026;28;20521;-53
2022/06/16 03:39:10;;;;;;;4.73;3.20;;;13.50;99.90;;;;;;5029691;28;20545;-52
2022/06/16 03:41:37;;;;;;;3.60;2.60;;;13.50;99.90;;;;;;5030498;28;22250;-53
2022/06/16 03:44:04;;;;;;;4.23;3.17;;;13.50;99.90;;;;;;5030403;28;20487;-52
2022/06/16 03:46:30;;;;;;;4.50;3.60;;;13.40;99.90;;;;;;5028780;28;20983;-53
2022/06/16 03:48:57;;;;;;;5.60;3.33;;;13.40;99.90;;;;;;5031405;28;20842;-53
2022/06/16 03:51:23;;;;;;;4.73;2.93;;;13.50;99.90;;;;;;5026486;28;20514;-52
2022/06/16 03:53:51;;;;;;;10.23;3.53;;;13.50;99.90;;;;;;5028855;28;21000;-53
2022/06/16 03:56:18;;;;;;;4.20;3.77;;;13.50;99.90;;;;;;5028452;28;20917;-54
2022/06/16 03:58:44;;;;;;;7.63;3.30;;;13.50;99.90;;;;;;5023173;28;20478;-54
2022/06/16 04:01:11;;;;;;;5.78;2.90;;;13.50;99.90;;;;;;5027108;28;20891;-54
2022/06/16 04:06:22;;;;;;;7.37;3.00;;;13.60;99.90;;;;;;5025719;28;20446;-54
2022/06/16 04:08:48;;;;;;;3.40;2.97;;;13.70;99.90;;;;;;5025274;28;20553;-54
2022/06/16 04:11:28;;;;;;;4.73;3.03;;;13.60;99.90;;;;;;5027954;28;20526;-54
2022/06/16 04:13:57;;;;;;;3.83;3.00;;;13.70;99.90;;;;;;5026379;28;20483;-54
2022/06/16 04:16:24;;;;;;;6.80;3.00;;;13.70;99.90;;;;;;5028660;28;20459;-55
2022/06/16 04:18:50;;;;;;;3.93;3.10;;;13.80;99.90;;;;;;5031204;28;20465;-55
2022/06/16 04:21:17;;;;;;;4.57;2.87;;;13.80;99.90;;;;;;5028510;28;20482;-54
2022/06/16 04:23:43;;;;;;;4.57;2.90;;;13.90;99.90;;;;;;5029437;28;20553;-54
2022/06/16 04:26:10;;;;;;;6.23;2.67;;;13.90;99.90;;;;;;5030926;28;20469;-55
2022/06/16 04:28:38;;;;;;;3.27;2.50;;;14.00;99.90;;;;;;5031170;28;20516;-55
2022/06/16 04:31:05;;;;;;;5.53;2.80;;;14.10;99.90;;;;;;5026460;28;20897;-54
2022/06/16 04:33:31;;;;;;;5.63;2.70;;;14.00;99.90;;;;;;5031393;28;20486;-55
2022/06/16 04:35:58;;;;;;;4.00;2.97;;;14.10;99.90;;;;;;5029369;28;20490;-55
2022/06/16 04:38:26;;;;;;;4.70;3.00;;;14.10;99.90;;;;;;5022740;28;20477;-54
2022/06/16 04:40:52;;;;;;;6.87;2.87;;;14.20;99.90;;;;;;5019810;28;20514;-55
2022/06/16 04:43:19;;;;;;;6.23;2.97;;;14.20;99.90;;;;;;5028316;28;20513;-55
2022/06/16 04:45:47;;;;;;;4.70;3.00;;;14.30;99.90;;;;;;5027298;28;20497;-54
2022/06/16 04:48:13;;;;;;;2.93;2.63;;;14.30;99.90;;;;;;5030635;28;20506;-55
2022/06/16 04:50:40;;;;;;;4.63;2.90;;;14.30;99.90;;;;;;5030014;28;20498;-56
2022/06/16 04:53:06;;;;;;;6.23;2.70;;;14.30;99.90;;;;;;5029064;28;20498;-55
2022/06/16 04:55:34;;;;;;;4.50;2.77;;;14.40;99.90;;;;;;5026974;28;20561;-55
2022/06/16 04:58:01;;;;;;;4.23;2.50;;;14.40;99.90;;;;;;5021182;28;20511;-55
2022/06/16 05:00:27;;;;;;;3.20;2.70;;;14.50;99.90;;;;;;5027350;28;20884;-54
2022/06/16 05:02:56;;;;;;;5.10;2.50;;;14.50;99.90;;;;;;5025553;28;20514;-55
2022/06/16 05:05:22;;;;;;;4.87;2.60;;;14.60;99.90;;;;;;5025388;28;20871;-56
2022/06/16 05:07:49;;;;;;;2.83;2.40;;;14.70;99.90;;;;;;5027090;28;20497;-56
2022/06/16 05:10:16;;;;;;;2.90;2.20;;;14.70;86.00;;;;;;5026311;28;20494;-54
2022/06/16 05:12:42;;;;;;;10.03;3.60;;;14.70;90.20;;;;;;5028821;28;20506;-55
2022/06/16 05:15:10;;;;;;;5.60;3.20;;;14.80;88.60;;;;;;5029108;28;20510;-55
2022/06/16 05:17:37;;;;;;;3.27;2.30;;;14.90;76.70;;;;;;5019633;28;20988;-53
2022/06/16 05:20:05;;;;;;;3.10;2.57;;;14.90;75.90;;;;;;5023086;28;20537;-55
2022/06/16 05:22:33;;;;;;;4.47;2.77;;;15.00;21.30;;;;;;5027670;28;20553;-54
2022/06/16 05:24:59;;;;;;;4.10;3.17;;;15.10;21.00;;;;;;5028911;28;20485;-56
2022/06/16 05:27:26;;;;;;;4.23;2.30;;;15.10;22.30;;;;;;5021179;28;21218;-55
2022/06/16 05:29:53;;;;;;;5.20;2.53;;;15.30;23.10;;;;;;5029705;28;20491;-56
2022/06/16 05:32:19;;;;;;;3.90;2.93;;;15.30;26.40;;;;;;5014343;28;20514;-54
2022/06/16 05:34:46;;;;;;;3.00;2.63;;;15.50;30.50;;;;;;5029398;28;21552;-55
2022/06/16 05:37:14;;;;;;;2.40;2.20;;;15.60;34.00;;;;;;5027835;28;20490;-51
2022/06/16 05:39:40;;;;;;;6.17;2.33;;;15.70;36.30;;;;;;5028301;28;20490;-51
2022/06/16 05:42:08;;;;;;;3.90;2.73;;;15.80;41.70;;;;;;5029888;28;20514;-52
2022/06/16 05:44:34;;;;;;;7.50;3.83;;;15.80;41.90;;;;;;5030273;28;20835;-50
2022/06/16 05:47:01;;;;;;;7.53;2.83;;;15.90;47.20;;;;;;5030918;28;20459;-51
2022/06/16 05:49:28;;;;;;;5.43;3.27;;;16.00;46.60;;;;;;5029626;28;20877;-51
2022/06/16 05:51:54;;;;;;;8.97;3.00;;;16.10;52.10;;;;;;5030563;28;20482;-51
2022/06/16 05:54:23;;;;;;;27.77;3.80;;;16.20;52.30;;;;;;5027565;28;20568;-51
2022/06/16 05:56:49;;;;;;;17.83;3.30;;;16.30;51.70;;;;;;5026330;28;20491;-52
2022/06/16 05:59:16;;;;;;;17.40;3.07;;;16.30;54.40;;;;;;5023139;28;20518;-53
2022/06/16 06:01:43;;;;;;;14.80;2.97;;;16.40;50.70;;;;;;5023356;28;20490;-53
2022/06/16 06:04:10;;;;;;;10.17;2.43;;;16.50;55.80;;;;;;5022691;28;20495;-54
2022/06/16 06:06:36;;;;;;;5.03;2.47;;;16.60;55.60;;;;;;5029300;28;20489;-54
2022/06/16 06:17:21;;;;;;;8.93;4.10;;;16.80;66.90;;;;;;5030082;28;20967;-53
2022/06/16 06:19:48;;;;;;;4.50;2.53;;;16.90;66.60;;;;;;5024401;28;20498;-54
2022/06/16 06:22:19;;;;;;;3.20;2.40;;;16.90;69.90;;;;;;5026281;28;20510;-54
2022/06/16 06:24:48;;;;;;;6.70;2.90;;;16.90;74.00;;;;;;5034284;28;20443;-53
2022/06/16 06:27:19;;;;;;;17.23;3.33;;;16.90;76.70;;;;;;5032740;28;20462;-54
2022/06/16 06:29:48;;;;;;;5.37;2.27;;;17.00;74.50;;;;;;5031374;28;20497;-53
2022/06/16 06:32:16;;;;;;;7.90;2.40;;;17.00;78.80;;;;;;5031081;28;20506;-53
2022/06/16 06:34:43;;;;;;;9.20;2.20;;;17.10;76.20;;;;;;5024630;28;20517;-54
2022/06/16 06:37:12;;;;;;;5.63;2.60;;;17.10;77.40;;;;;;5026528;28;20490;-53
2022/06/16 06:39:39;;;;;;;10.30;2.60;;;17.20;79.30;;;;;;5026550;28;20506;-53
2022/06/16 06:42:06;;;;;;;9.60;3.00;;;17.20;82.10;;;;;;5025366;28;20518;-55
2022/06/16 06:44:34;;;;;;;2.30;2.00;;;17.30;87.30;;;;;;5021071;28;21023;-53
2022/06/16 06:47:01;;;;;;;9.50;3.13;;;17.30;88.00;;;;;;5030967;28;20458;-54
2022/06/16 06:49:28;;;;;;;3.93;2.57;;;17.40;84.40;;;;;;5019006;28;20500;-55
2022/06/16 06:51:55;;;;;;;9.80;3.33;;;17.40;86.30;;;;;;5026705;28;20525;-55
2022/06/16 06:54:22;;;;;;;13.50;2.33;;;17.50;86.80;;;;;;5029426;28;20976;-54
2022/06/16 06:56:50;;;;;;;6.50;2.37;;;17.60;91.20;;;;;;5029823;28;20490;-54
2022/06/16 06:59:19;;;;;;;5.40;2.30;;;17.60;88.60;;;;;;5033445;28;20498;-55
2022/06/16 07:01:48;;;;;;;9.60;2.00;;;17.60;92.90;;;;;;5026052;28;20483;-54
2022/06/16 07:04:15;;;;;;;5.70;2.47;;;17.70;94.10;;;;;;5028688;28;20466;-54
2022/06/16 07:06:42;;;;;;;8.33;2.60;;;17.70;90.50;;;;;;5019472;28;20460;-53
2022/06/16 07:09:10;;;;;;;4.73;2.00;;;17.70;94.20;;;;;;5026137;28;20462;-55
2022/06/16 07:11:40;;;;;;;5.10;2.70;;;17.70;92.20;;;;;;5023111;28;20562;-55
2022/06/16 07:14:06;;;;;;;3.07;2.47;;;17.80;98.30;;;;;;5029827;28;20462;-55
2022/06/16 07:16:33;;;;;;;3.77;2.93;;;17.90;97.40;;;;;;5027499;28;20570;-55
2022/06/16 07:19:01;;;;;;;10.03;2.40;;;18.00;98.50;;;;;;5027659;28;20462;-55
2022/06/16 07:21:29;;;;;;;10.13;2.80;;;18.10;99.90;;;;;;5025158;28;20548;-55
2022/06/16 07:23:56;;;;;;;8.23;3.20;;;18.20;99.90;;;;;;5025080;28;20460;-54
2022/06/16 07:26:23;;;;;;;7.73;2.40;;;18.30;99.90;;;;;;5025640;28;20490;-55
2022/06/16 07:28:50;;;;;;;14.13;3.20;;;18.30;99.90;;;;;;5024360;28;20494;-54
2022/06/16 07:31:17;;;;;;;4.90;2.33;;;18.40;99.90;;;;;;5029816;28;20872;-55
2022/06/16 07:33:44;;;;;;;1.80;1.70;;;18.60;99.90;;;;;;5024262;28;20550;-54
2022/06/16 07:36:11;;;;;;;3.03;2.83;;;18.60;99.90;;;;;;5026085;28;20565;-54
2022/06/16 07:38:38;;;;;;;3.80;1.90;;;18.80;99.90;;;;;;5030208;28;20495;-54
2022/06/16 07:43:49;;;;;;;4.47;1.83;;;18.90;99.90;;;;;;5029221;28;20577;-55
2022/06/16 07:46:16;;;;;;;9.13;2.40;;;19.00;99.90;;;;;;5024444;28;20494;-55
2022/06/16 07:48:42;;;;;;;14.30;2.37;;;19.00;99.90;;;;;;5026676;28;20498;-54
2022/06/16 07:51:09;;;;;;;8.33;3.30;;;19.10;99.90;;;;;;5021563;28;20930;-54
2022/06/16 07:53:37;;;;;;;10.97;3.70;;;19.20;99.90;;;;;;5023241;28;20492;-54
2022/06/16 07:56:04;;;;;;;7.70;3.00;;;19.30;99.90;;;;;;5029463;28;20518;-55
2022/06/16 07:58:31;;;;;;;7.47;3.20;;;19.50;99.90;;;;;;5032117;28;20494;-54
2022/06/16 08:00:59;;;;;;;2.47;1.90;;;19.60;99.90;;;;;;5024725;28;20988;-53
2022/06/16 08:03:28;;;;;;;5.90;2.20;;;19.70;99.90;;;;;;5025896;28;20463;-55
2022/06/16 08:05:55;;;;;;;5.90;2.60;;;19.80;99.90;;;;;;5025946;28;20465;-54
2022/06/16 08:08:23;;;;;;;20.87;3.83;;;19.80;99.90;;;;;;5029962;28;20506;-56
2022/06/16 08:10:52;;;;;;;3.50;2.30;;;19.90;99.90;;;;;;5022899;28;20518;-54
2022/06/16 08:13:18;;;;;;;10.13;3.00;;;20.00;99.90;;;;;;5026573;28;20902;-55
2022/06/16 08:15:46;;;;;;;9.17;2.30;;;20.20;99.90;;;;;;5028639;28;20505;-54
2022/06/16 08:18:14;;;;;;;9.63;2.67;;;20.30;99.90;;;;;;5027058;28;20586;-56
2022/06/16 08:20:42;;;;;;;4.63;2.57;;;20.40;99.90;;;;;;5023725;28;20491;-55
2022/06/16 08:23:09;;;;;;;4.07;2.17;;;20.40;99.90;;;;;;5023156;28;20569;-54
2022/06/16 08:25:35;;;;;;;6.57;2.23;;;20.40;99.90;;;;;;5022947;28;20565;-54
2022/06/16 08:28:04;;;;;;;5.57;2.50;;;20.40;99.90;;;;;;5025768;28;20521;-54
2022/06/16 08:30:32;;;;;;;23.00;3.77;;;20.40;99.90;;;;;;5022336;28;20490;-54
2022/06/16 08:32:59;;;;;;;3.83;2.70;;;20.50;99.90;;;;;;5020408;28;20495;-55
2022/06/16 08:35:26;;;;;;;4.37;3.10;;;20.60;99.90;;;;;;5028349;28;20926;-54
2022/06/16 08:37:53;;;;;;;4.73;2.77;;;20.70;99.90;;;;;;5030355;28;20516;-54
2022/06/16 08:40:21;;;;;;;5.17;2.13;;;20.80;99.90;;;;;;5025115;28;20860;-55
2022/06/16 08:42:51;;;;;;;5.13;1.90;;;20.90;99.90;;;;;;5024915;28;20482;-55
2022/06/16 08:45:31;;;;;;;2.30;2.10;;;21.00;99.90;;;;;;5023757;28;20952;-55
2022/06/16 08:48:22;;;;;;;5.67;2.77;;;21.10;99.90;;;;;;5017813;28;20968;-56
2022/06/16 08:50:56;;;;;;;3.90;2.00;;;21.20;99.90;;;;;;5016804;28;20491;-55
2022/06/16 08:53:45;;;;;;;9.40;3.30;;;21.30;99.90;;;;;;5028421;28;20466;-55
2022/06/16 08:56:18;;;;;;;3.43;2.17;;;21.20;99.90;;;;;;5027179;28;20505;-54
2022/06/16 08:58:53;;;;;;;3.63;2.40;;;21.20;99.90;;;;;;5017127;28;20495;-54
2022/06/16 09:01:26;;;;;;;3.73;2.00;;;21.30;99.90;;;;;;5027957;28;20995;-54
2022/06/16 09:04:01;;;;;;;6.50;2.27;;;21.30;99.90;;;;;;5031577;28;20478;-55
2022/06/16 09:06:34;;;;;;;4.17;2.17;;;21.30;99.90;;;;;;5028792;28;20485;-55
2022/06/16 09:09:10;;;;;;;5.53;2.60;;;21.30;99.90;;;;;;5025899;28;20896;-54
2022/06/16 09:11:47;;;;;;;6.43;2.40;;;21.30;99.90;;;;;;5028794;28;20516;-54
2022/06/16 09:15:10;;;;;;;3.03;2.53;;;21.40;99.90;;;;;;5030045;28;20528;-55
2022/06/16 09:17:24;;;;;;;2.37;2.00;;;21.40;99.90;;;;;;5029247;28;20496;-54
2022/06/16 09:20:02;;;;;;;6.07;2.50;;;21.50;99.90;;;;;;5021568;28;21053;-54
2022/06/16 09:22:51;;;;;;;10.93;2.97;;;21.50;99.90;;;;;;5022217;28;20509;-54
2022/06/16 09:25:50;;;;;;;9.77;3.50;;;21.50;99.90;;;;;;5025264;28;20501;-55
2022/06/16 09:28:25;;;;;;;2.77;2.23;;;21.60;99.90;;;;;;5021816;28;20465;-55
2022/06/16 09:30:53;;;;;;;9.20;2.37;;;21.70;99.90;;;;;;5025588;28;20991;-55
2022/06/16 09:33:27;;;;;;;2.40;2.00;;;21.70;99.90;;;;;;5027678;28;21007;-55
2022/06/16 09:36:00;;;;;;;7.50;2.67;;;21.80;99.90;;;;;;5023453;28;20509;-55
2022/06/16 09:38:32;;;;;;;9.93;2.50;;;21.90;99.90;;;;;;5024410;28;20459;-56
2022/06/16 09:41:05;;;;;;;4.43;2.23;;;22.10;99.90;;;;;;5023602;28;20995;-54
2022/06/16 09:43:36;;;;;;;5.90;2.40;;;22.20;99.90;;;;;;5021147;28;20486;-55
2022/06/16 09:46:06;;;;;;;3.30;2.33;;;22.30;99.90;;;;;;5014043;28;20538;-55
2022/06/16 09:48:43;;;;;;;7.90;2.47;;;22.20;99.90;;;;;;5030641;28;20909;-55
2022/06/16 09:51:17;;;;;;;19.27;3.57;;;22.20;99.90;;;;;;5028699;28;20552;-55
2022/06/16 09:53:48;;;;;;;11.83;2.97;;;22.20;99.90;;;;;;5025640;28;20524;-56
2022/06/16 09:56:21;;;;;;;2.20;2.00;;;22.10;99.90;;;;;;5027580;28;20580;-56
2022/06/16 09:58:53;;;;;;;5.83;2.20;;;22.00;99.90;;;;;;5031475;28;21011;-55
2022/06/16 10:01:23;;;;;;;6.67;2.17;;;21.90;99.90;;;;;;5030070;28;20518;-54
2022/06/16 10:03:57;;;;;;;4.50;2.10;;;22.00;99.90;;;;;;5030729;28;20521;-54
2022/06/16 10:06:31;;;;;;;17.13;2.60;;;21.90;99.90;;;;;;5024801;28;20454;-54
2022/06/16 10:09:08;;;;;;;7.60;2.03;;;21.90;99.90;;;;;;5029860;28;20501;-56
2022/06/16 10:11:45;;;;;;;3.47;2.50;;;21.90;99.90;;;;;;5027480;28;20897;-55
2022/06/16 10:14:19;;;;;;;2.30;1.80;;;21.90;99.90;;;;;;5031445;28;20490;-55
2022/06/16 10:16:52;;;;;;;6.03;2.53;;;21.80;99.90;;;;;;5028974;28;20470;-54
2022/06/16 10:19:21;;;;;;;12.00;2.33;;;21.80;99.90;;;;;;5032954;28;20535;-54
2022/06/16 10:21:48;;;;;;;4.20;2.23;;;21.80;99.90;;;;;;5030585;28;20509;-54
2022/06/16 10:24:18;;;;;;;14.17;2.63;;;21.70;99.90;;;;;;5021814;28;20456;-55
2022/06/16 10:26:45;;;;;;;8.37;2.73;;;21.70;99.90;;;;;;5030756;28;20482;-55
2022/06/16 10:29:23;;;;;;;3.03;2.40;;;21.70;99.90;;;;;;5025842;28;20819;-55
2022/06/16 10:31:51;;;;;;;3.60;2.00;;;21.70;99.90;;;;;;5026944;28;20458;-55
2022/06/16 10:34:28;;;;;;;11.10;2.63;;;21.80;99.90;;;;;;5033321;28;20478;-54
2022/06/16 10:37:00;;;;;;;8.20;2.30;;;21.90;99.90;;;;;;5027053;28;20482;-54
2022/06/16 10:39:32;;;;;;;2.30;2.10;;;22.00;99.90;;;;;;5032073;28;20988;-54
2022/06/16 10:42:03;;;;;;;6.73;2.20;;;22.00;99.90;;;;;;5029519;28;21031;-54
2022/06/16 10:44:33;;;;;;;2.77;1.90;;;22.10;99.90;;;;;;5023636;28;20495;-54
2022/06/16 10:47:02;;;;;;;3.60;2.10;;;22.10;99.90;;;;;;5027553;28;20494;-54
2022/06/16 10:49:34;;;;;;;6.17;2.17;;;22.20;99.90;;;;;;5030963;28;20562;-54
2022/06/16 10:52:06;;;;;;;2.20;2.00;;;22.40;99.90;;;;;;5025265;28;20475;-54
2022/06/16 10:54:36;;;;;;;5.73;1.83;;;22.50;99.90;;;;;;5029132;28;20493;-54
2022/06/16 10:57:12;;;;;;;9.10;2.93;;;22.80;99.90;;;;;;5031903;28;20507;-54
2022/06/16 10:59:42;;;;;;;4.53;1.73;;;22.80;99.90;;;;;;5029159;28;20502;-55
2022/06/16 11:02:25;;;;;;;5.13;1.93;;;22.80;99.90;;;;;;5026853;28;21036;-54
2022/06/16 11:05:00;;;;;;;11.70;2.07;;;22.80;99.90;;;;;;5028725;28;20463;-54
2022/06/16 11:07:29;;;;;;;5.10;2.13;;;23.00;99.90;;;;;;5028815;28;20454;-54
2022/06/16 11:10:03;;;;;;;27.13;4.87;;;23.00;99.90;;;;;;5026920;28;20557;-54
2022/06/16 11:12:31;;;;;;;6.33;2.50;;;23.00;99.90;;;;;;5020157;28;20511;-54
2022/06/16 11:15:01;;;;;;;2.50;2.13;;;23.00;99.90;;;;;;5020206;28;20541;-55
2022/06/16 11:17:30;;;;;;;3.13;1.87;;;23.10;99.90;;;;;;5028637;28;20558;-54
2022/06/16 11:20:05;;;;;;;3.33;1.90;;;23.00;99.90;;;;;;5026588;28;20495;-54
2022/06/16 11:22:35;;;;;;;11.20;2.80;;;23.10;99.90;;;;;;5021436;28;21028;-54
2022/06/16 11:25:06;;;;;;;11.00;2.40;;;23.30;99.90;;;;;;5025055;28;20451;-54
2022/06/16 11:27:40;;;;;;;3.33;1.90;;;23.50;99.90;;;;;;5022424;28;20464;-54
2022/06/16 11:30:34;;;;;;;3.43;2.10;;;23.50;99.90;;;;;;5016998;28;20470;-54
2022/06/16 11:33:01;;;;;;;3.83;2.20;;;23.50;99.90;;;;;;5023293;28;20895;-54
2022/06/16 11:35:38;;;;;;;3.93;2.00;;;23.40;99.90;;;;;;5025345;28;20470;-53
2022/06/16 11:38:16;;;;;;;4.53;2.00;;;23.40;99.90;;;;;;5032440;22;20520;-53
2022/06/16 11:40:48;;;;;;;5.27;1.80;;;23.50;99.90;;;;;;5006260;28;20880;-53
2022/06/16 11:43:43;;;;;;;8.53;2.23;;;23.50;99.90;;;;;;5001265;28;20557;-54
2022/06/16 11:46:20;;;;;;;12.03;2.30;;;23.50;99.90;;;;;;5007078;28;20488;-54
2022/06/16 11:49:01;;;;;;;2.20;1.90;;;23.40;99.90;;;;;;5006846;28;20530;-54
2022/06/16 11:51:35;;;;;;;2.70;1.63;;;23.40;99.90;;;;;;5005547;28;20491;-54
2022/06/16 11:54:11;;;;;;;4.77;2.07;;;23.50;99.90;;;;;;5007183;28;21178;-54
2022/06/16 11:56:42;;;;;;;6.00;2.10;;;23.50;99.90;;;;;;5000443;28;20519;-54
2022/06/16 11:59:27;;;;;;;26.13;2.40;;;23.70;99.90;;;;;;5008361;28;20483;-53
2022/06/16 12:01:57;;;;;;;4.60;2.87;;;23.80;99.90;;;;;;5002723;28;20576;-53
2022/06/16 12:04:50;;;;;;;6.27;2.17;;;23.80;99.90;;;;;;5005302;28;20555;-54
2022/06/16 12:07:39;;;;;;;3.33;2.30;;;23.90;99.90;;;;;;5003981;28;20491;-55
2022/06/16 12:10:13;;;;;;;8.07;2.20;;;23.90;99.90;;;;;;5006272;28;20537;-53
2022/06/16 12:12:45;;;;;;;6.97;2.80;;;23.90;99.90;;;;;;5003135;28;20510;-53
2022/06/16 12:15:23;;;;;;;5.77;1.80;;;24.10;99.90;;;;;;5000230;28;20523;-53
2022/06/16 12:17:58;;;;;;;12.43;2.33;;;24.10;99.90;;;;;;5006183;28;20530;-54
2022/06/16 12:20:30;;;;;;;6.10;2.20;;;23.90;99.90;;;;;;5005326;28;20580;-53
2022/06/16 12:23:05;;;;;;;7.90;1.53;;;23.80;99.90;;;;;;5005876;28;20491;-55
2022/06/16 12:25:38;;;;;;;7.23;1.87;;;23.90;99.90;;;;;;5000418;28;20601;-55
2022/06/16 12:28:12;;;;;;;4.60;2.10;;;23.80;99.90;;;;;;5004272;28;20855;-54
2022/06/16 12:30:43;;;;;;;18.90;1.67;;;23.90;99.90;;;;;;5003262;28;21237;-54
2022/06/16 12:33:17;;;;;;;2.30;1.43;;;24.00;99.90;;;;;;5004317;28;20487;-55
2022/06/16 12:35:49;;;;;;;4.73;2.03;;;24.10;99.90;;;;;;4998819;28;20461;-55
2022/06/16 12:38:22;;;;;;;10.33;1.90;;;24.30;99.90;;;;;;5001455;28;20492;-54
2022/06/16 12:40:52;;;;;;;4.07;2.60;;;24.20;99.90;;;;;;4998335;28;21025;-54
2022/06/16 12:43:25;;;;;;;5.07;1.90;;;24.10;99.90;;;;;;5005087;28;20973;-54
2022/06/16 12:45:56;;;;;;;4.23;2.27;;;24.20;99.90;;;;;;5001375;28;20460;-53
2022/06/16 12:48:27;;;;;;;2.90;1.60;;;24.30;99.90;;;;;;5003912;28;20511;-53
2022/06/16 12:50:56;;;;;;;2.77;2.07;;;24.40;99.90;;;;;;5004551;28;20451;-53
2022/06/16 12:53:31;;;;;;;4.13;1.83;;;24.50;99.90;;;;;;5009139;28;20817;-53
2022/06/16 12:56:05;;;;;;;4.93;1.93;;;24.40;99.90;;;;;;5009093;28;20490;-53
2022/06/16 12:58:35;;;;;;;3.13;1.93;;;24.30;99.90;;;;;;5007347;28;20499;-55
2022/06/16 13:01:05;;;;;;;5.07;3.17;;;24.10;99.90;;;;;;5006420;28;20491;-54
2022/06/16 13:03:37;;;;;;;1.73;1.60;;;24.20;99.90;;;;;;5003699;28;20463;-53
2022/06/16 13:06:05;;;;;;;3.77;2.00;;;24.40;99.90;;;;;;5009599;28;21005;-54
2022/06/16 13:08:38;;;;;;;5.00;2.47;;;24.50;99.90;;;;;;5008866;28;21075;-53
2022/06/16 13:11:09;;;;;;;3.17;2.00;;;24.70;99.90;;;;;;5004459;28;20459;-53
2022/06/16 13:13:39;;;;;;;2.07;1.73;;;24.80;99.90;;;;;;5009047;28;20980;-52
2022/06/16 13:16:07;;;;;;;4.13;1.77;;;24.70;99.90;;;;;;5008295;28;20506;-54
2022/06/16 13:18:44;;;;;;;7.83;2.27;;;24.80;99.90;;;;;;5017085;28;20502;-53
2022/06/16 13:21:11;;;;;;;4.03;2.27;;;24.50;99.90;;;;;;5004657;28;20911;-54
2022/06/16 13:23:41;;;;;;;2.90;2.10;;;24.30;99.90;;;;;;5004283;28;20484;-54